Nearby METAR Reports

 

KMSY - New Orleans,Louisiana, USA
Distance from station: E 11.7mi, 18.8km
Updated: Fri, 23-Feb-2018 3:53am CST
Few Clouds
Few Clouds
 Wind from ESE
Wind: ESE 8 mph , 13 km/h
Temperature: 70°F , 21°C
Dew Point: 68°F , 20°C
Humidity: 94%
Barometer: 30.24 inHg , 1024 hPa
Clouds: Few Clouds
Visibility: 10 miles , 16 km
Cloud details: Few Clouds 1100 ft
2018/02/23 09:53 KMSY 230953Z 11007KT 10SM FEW011 21/20 A3024 RMK AO2 SLP243 T02060200
KAPS - Reserve,Louisiana, USA
Distance from station: W 8.4mi, 13.5km
Updated: Fri, 23-Feb-2018 3:55am CST
Overcast
Overcast
 Wind from SE
Wind: SE 6 mph , 9 km/h
Temperature: 72°F , 22°C
Dew Point: 68°F , 20°C
Humidity: 88%
Barometer: 30.24 inHg , 1024 hPa
Clouds: Overcast
Visibility: 10 miles , 16 km
Cloud details: Overcast 11000 ft
2018/02/23 09:55 KAPS 230955Z AUTO 13005KT 10SM OVC110 22/20 A3024 RMK AO2 T02190195
 
KHDC - Hammond,Louisiana, USA
Distance from station: N 31.5mi, 50.6km
Updated: Fri, 23-Feb-2018 3:55am CST
Overcast
Overcast
 Wind from SE
Wind: SE 9 mph , 15 km/h
Temperature: 70°F , 21°C
Dew Point: 68°F , 20°C
Humidity: 94%
Barometer: 30.24 inHg , 1024 hPa
Clouds: Overcast
Visibility: 7 miles , 11 km
Cloud details: Overcast 700 ft
2018/02/23 09:55 KHDC 230955Z AUTO 13008KT 7SM OVC007 21/20 A3024 RMK AO2
KHUM - Houma,Louisiana, USA
Distance from station: SW 36.54mi, 58.8km
Updated: Fri, 23-Feb-2018 3:55am CST
Light drizzle, Overcast
Light drizzle, Overcast
 Wind from ESE
Wind: ESE 8 mph , 13 km/h
Temperature: 72°F , 22°C
Dew Point: 70°F , 21°C
Humidity: 94%
Barometer: 30.24 inHg , 1024 hPa
Summary: Light Drizzle
Clouds: Overcast
Visibility: 4 miles , 6 km
Cloud details: Partly cloudy 900 ft
Mostly cloudy 2200 ft
Overcast 4300 ft
2018/02/23 09:55 KHUM 230955Z AUTO 11007KT 4SM -DZ SCT009 BKN022 OVC043 22/21 A3024 RMK AO2 P0002 T02150210